sensor_id;sensor_type;location;lat;lon;timestamp;temperature;humidity
21092;DHT22;10704;42.678;23.288;2023-05-20T00:01:11;11.70;99.90
21092;DHT22;10704;42.678;23.288;2023-05-20T00:03:36;11.80;99.90
21092;DHT22;10704;42.678;23.288;2023-05-20T00:06:03;11.80;99.90
21092;DHT22;10704;42.678;23.288;2023-05-20T00:08:29;11.70;99.90
21092;DHT22;10704;42.678;23.288;2023-05-20T00:10:55;11.60;99.90
21092;DHT22;10704;42.678;23.288;2023-05-20T00:13:21;11.70;99.90
21092;DHT22;10704;42.678;23.288;2023-05-20T00:15:49;11.70;99.90
21092;DHT22;10704;42.678;23.288;2023-05-20T00:18:15;11.60;99.90
21092;DHT22;10704;42.678;23.288;2023-05-20T00:20:41;11.60;99.90
21092;DHT22;10704;42.678;23.288;2023-05-20T00:23:07;11.60;99.90
21092;DHT22;10704;42.678;23.288;2023-05-20T00:25:33;11.70;99.90
21092;DHT22;10704;42.678;23.288;2023-05-20T00:27:59;11.80;99.90
21092;DHT22;10704;42.678;23.288;2023-05-20T00:30:26;11.70;99.90
21092;DHT22;10704;42.678;23.288;2023-05-20T00:32:52;11.70;99.90
21092;DHT22;10704;42.678;23.288;2023-05-20T00:35:20;11.70;99.90
21092;DHT22;10704;42.678;23.288;2023-05-20T00:37:46;11.70;99.90
21092;DHT22;10704;42.678;23.288;2023-05-20T00:40:15;11.70;99.90
21092;DHT22;10704;42.678;23.288;2023-05-20T00:42:41;11.70;99.90
21092;DHT22;10704;42.678;23.288;2023-05-20T00:45:08;11.60;99.90
21092;DHT22;10704;42.678;23.288;2023-05-20T00:47:34;11.60;99.90
21092;DHT22;10704;42.678;23.288;2023-05-20T00:50:09;11.50;99.90
21092;DHT22;10704;42.678;23.288;2023-05-20T00:52:35;11.40;99.90
21092;DHT22;10704;42.678;23.288;2023-05-20T00:55:02;11.30;99.90
21092;DHT22;10704;42.678;23.288;2023-05-20T00:57:28;11.30;99.90
21092;DHT22;10704;42.678;23.288;2023-05-20T00:59:54;11.30;99.90
21092;DHT22;10704;42.678;23.288;2023-05-20T01:02:21;11.30;99.90
21092;DHT22;10704;42.678;23.288;2023-05-20T01:04:48;11.20;99.90
21092;DHT22;10704;42.678;23.288;2023-05-20T01:07:16;11.20;99.90
21092;DHT22;10704;42.678;23.288;2023-05-20T01:09:43;11.10;99.90
21092;DHT22;10704;42.678;23.288;2023-05-20T01:12:27;11.20;99.90
21092;DHT22;10704;42.678;23.288;2023-05-20T01:15:00;11.30;99.90
21092;DHT22;10704;42.678;23.288;2023-05-20T01:17:29;11.30;99.90
21092;DHT22;10704;42.678;23.288;2023-05-20T01:19:58;11.20;99.90
21092;DHT22;10704;42.678;23.288;2023-05-20T01:22:28;11.10;99.90
21092;DHT22;10704;42.678;23.288;2023-05-20T01:24:54;11.20;99.90
21092;DHT22;10704;42.678;23.288;2023-05-20T01:27:22;11.10;99.90
21092;DHT22;10704;42.678;23.288;2023-05-20T01:29:50;11.20;99.90
21092;DHT22;10704;42.678;23.288;2023-05-20T01:32:27;11.30;99.90
21092;DHT22;10704;42.678;23.288;2023-05-20T01:34:54;11.30;99.90
21092;DHT22;10704;42.678;23.288;2023-05-20T01:37:21;11.30;99.90
21092;DHT22;10704;42.678;23.288;2023-05-20T01:39:49;11.20;99.90
21092;DHT22;10704;42.678;23.288;2023-05-20T01:42:16;11.30;99.90
21092;DHT22;10704;42.678;23.288;2023-05-20T01:44:43;11.40;99.90
21092;DHT22;10704;42.678;23.288;2023-05-20T01:47:09;11.40;99.90
21092;DHT22;10704;42.678;23.288;2023-05-20T01:49:35;11.40;99.90
21092;DHT22;10704;42.678;23.288;2023-05-20T01:52:02;11.30;99.90
21092;DHT22;10704;42.678;23.288;2023-05-20T01:54:28;11.20;99.90
21092;DHT22;10704;42.678;23.288;2023-05-20T01:56:54;11.30;99.90
21092;DHT22;10704;42.678;23.288;2023-05-20T01:59:22;11.40;99.90
21092;DHT22;10704;42.678;23.288;2023-05-20T02:01:49;11.40;99.90
21092;DHT22;10704;42.678;23.288;2023-05-20T02:04:15;11.40;99.90
21092;DHT22;10704;42.678;23.288;2023-05-20T02:06:43;11.40;99.90
21092;DHT22;10704;42.678;23.288;2023-05-20T02:09:10;11.50;99.90
21092;DHT22;10704;42.678;23.288;2023-05-20T02:11:36;11.50;99.90
21092;DHT22;10704;42.678;23.288;2023-05-20T02:14:02;11.40;99.90
21092;DHT22;10704;42.678;23.288;2023-05-20T02:16:28;11.30;99.90
21092;DHT22;10704;42.678;23.288;2023-05-20T02:18:55;11.20;99.90
21092;DHT22;10704;42.678;23.288;2023-05-20T02:21:23;11.10;99.90
21092;DHT22;10704;42.678;23.288;2023-05-20T02:23:50;11.00;99.90
21092;DHT22;10704;42.678;23.288;2023-05-20T02:26:16;11.10;99.90
21092;DHT22;10704;42.678;23.288;2023-05-20T02:28:42;11.00;99.90
21092;DHT22;10704;42.678;23.288;2023-05-20T02:31:12;11.00;99.90
21092;DHT22;10704;42.678;23.288;2023-05-20T02:33:38;10.90;99.90
21092;DHT22;10704;42.678;23.288;2023-05-20T02:36:05;10.90;99.90
21092;DHT22;10704;42.678;23.288;2023-05-20T02:38:31;11.00;99.90
21092;DHT22;10704;42.678;23.288;2023-05-20T02:40:57;11.00;99.90
21092;DHT22;10704;42.678;23.288;2023-05-20T02:43:24;11.00;99.90
21092;DHT22;10704;42.678;23.288;2023-05-20T02:45:51;11.00;99.90
21092;DHT22;10704;42.678;23.288;2023-05-20T02:48:17;11.00;99.90
21092;DHT22;10704;42.678;23.288;2023-05-20T02:50:46;10.80;99.90
21092;DHT22;10704;42.678;23.288;2023-05-20T02:53:12;10.80;99.90
21092;DHT22;10704;42.678;23.288;2023-05-20T02:55:39;10.80;99.90
21092;DHT22;10704;42.678;23.288;2023-05-20T02:58:05;10.70;99.90
21092;DHT22;10704;42.678;23.288;2023-05-20T03:00:33;10.70;99.90
21092;DHT22;10704;42.678;23.288;2023-05-20T03:03:25;10.80;99.90
21092;DHT22;10704;42.678;23.288;2023-05-20T03:05:52;10.80;99.90
21092;DHT22;10704;42.678;23.288;2023-05-20T03:08:20;10.80;99.90
21092;DHT22;10704;42.678;23.288;2023-05-20T03:10:47;10.80;99.90
21092;DHT22;10704;42.678;23.288;2023-05-20T03:13:13;10.70;99.90
21092;DHT22;10704;42.678;23.288;2023-05-20T03:15:43;10.60;99.90
21092;DHT22;10704;42.678;23.288;2023-05-20T03:18:10;10.60;99.90
21092;DHT22;10704;42.678;23.288;2023-05-20T03:20:37;10.60;99.90
21092;DHT22;10704;42.678;23.288;2023-05-20T03:23:05;10.60;99.90
21092;DHT22;10704;42.678;23.288;2023-05-20T03:25:32;10.70;99.90
21092;DHT22;10704;42.678;23.288;2023-05-20T03:27:58;10.70;99.90
21092;DHT22;10704;42.678;23.288;2023-05-20T03:30:25;10.70;99.90
21092;DHT22;10704;42.678;23.288;2023-05-20T03:32:55;10.80;99.90
21092;DHT22;10704;42.678;23.288;2023-05-20T03:35:24;10.90;99.90
21092;DHT22;10704;42.678;23.288;2023-05-20T03:37:50;10.90;99.90
21092;DHT22;10704;42.678;23.288;2023-05-20T03:40:20;11.00;99.90
21092;DHT22;10704;42.678;23.288;2023-05-20T03:42:47;11.00;99.90
21092;DHT22;10704;42.678;23.288;2023-05-20T03:45:15;11.10;99.90
21092;DHT22;10704;42.678;23.288;2023-05-20T03:47:48;11.20;99.90
21092;DHT22;10704;42.678;23.288;2023-05-20T03:50:16;11.20;99.90
21092;DHT22;10704;42.678;23.288;2023-05-20T03:56:29;11.40;99.90
21092;DHT22;10704;42.678;23.288;2023-05-20T04:02:43;11.60;99.90
21092;DHT22;10704;42.678;23.288;2023-05-20T04:05:16;11.60;99.90
21092;DHT22;10704;42.678;23.288;2023-05-20T04:07:42;11.80;99.90
21092;DHT22;10704;42.678;23.288;2023-05-20T04:10:09;11.80;99.90
21092;DHT22;10704;42.678;23.288;2023-05-20T04:12:35;11.90;99.90
21092;DHT22;10704;42.678;23.288;2023-05-20T04:15:03;12.00;99.90
21092;DHT22;10704;42.678;23.288;2023-05-20T04:17:37;12.10;99.90
21092;DHT22;10704;42.678;23.288;2023-05-20T04:20:06;12.20;99.90
21092;DHT22;10704;42.678;23.288;2023-05-20T04:22:34;12.30;99.90
21092;DHT22;10704;42.678;23.288;2023-05-20T04:25:00;12.40;99.90
21092;DHT22;10704;42.678;23.288;2023-05-20T04:27:28;12.50;99.90
21092;DHT22;10704;42.678;23.288;2023-05-20T04:29:55;12.60;99.90
21092;DHT22;10704;42.678;23.288;2023-05-20T04:32:24;12.70;99.90
21092;DHT22;10704;42.678;23.288;2023-05-20T04:34:52;12.80;99.90
21092;DHT22;10704;42.678;23.288;2023-05-20T04:37:21;12.80;99.90
21092;DHT22;10704;42.678;23.288;2023-05-20T04:39:47;12.90;99.90
21092;DHT22;10704;42.678;23.288;2023-05-20T04:42:15;13.00;99.90
21092;DHT22;10704;42.678;23.288;2023-05-20T04:44:43;13.10;99.90
21092;DHT22;10704;42.678;23.288;2023-05-20T04:47:11;13.20;99.90
21092;DHT22;10704;42.678;23.288;2023-05-20T04:49:37;13.30;99.90
21092;DHT22;10704;42.678;23.288;2023-05-20T04:52:05;13.50;99.90
21092;DHT22;10704;42.678;23.288;2023-05-20T04:54:34;13.70;99.90
21092;DHT22;10704;42.678;23.288;2023-05-20T04:57:00;13.70;99.90
21092;DHT22;10704;42.678;23.288;2023-05-20T04:59:27;13.80;99.90
21092;DHT22;10704;42.678;23.288;2023-05-20T05:01:53;13.90;99.90
21092;DHT22;10704;42.678;23.288;2023-05-20T05:04:19;14.00;99.90
21092;DHT22;10704;42.678;23.288;2023-05-20T05:06:47;14.00;99.90
21092;DHT22;10704;42.678;23.288;2023-05-20T05:09:13;14.10;99.90
21092;DHT22;10704;42.678;23.288;2023-05-20T05:11:41;14.20;99.90
21092;DHT22;10704;42.678;23.288;2023-05-20T05:14:07;14.30;99.90
21092;DHT22;10704;42.678;23.288;2023-05-20T05:16:34;14.40;99.90
21092;DHT22;10704;42.678;23.288;2023-05-20T05:19:00;14.50;99.90
21092;DHT22;10704;42.678;23.288;2023-05-20T05:21:30;14.70;99.90
21092;DHT22;10704;42.678;23.288;2023-05-20T05:23:56;14.80;99.90
21092;DHT22;10704;42.678;23.288;2023-05-20T05:26:25;14.90;99.90
21092;DHT22;10704;42.678;23.288;2023-05-20T05:32:39;15.00;99.90
21092;DHT22;10704;42.678;23.288;2023-05-20T05:35:05;15.10;99.90
21092;DHT22;10704;42.678;23.288;2023-05-20T05:37:31;15.10;99.90
21092;DHT22;10704;42.678;23.288;2023-05-20T05:39:57;15.40;99.90
21092;DHT22;10704;42.678;23.288;2023-05-20T05:42:23;15.50;99.90
21092;DHT22;10704;42.678;23.288;2023-05-20T05:44:50;15.60;99.90
21092;DHT22;10704;42.678;23.288;2023-05-20T05:47:18;15.80;99.90
21092;DHT22;10704;42.678;23.288;2023-05-20T05:49:44;15.90;99.90
21092;DHT22;10704;42.678;23.288;2023-05-20T05:52:10;16.20;99.90
21092;DHT22;10704;42.678;23.288;2023-05-20T05:54:36;16.30;99.90
21092;DHT22;10704;42.678;23.288;2023-05-20T05:57:02;16.50;99.90
21092;DHT22;10704;42.678;23.288;2023-05-20T05:59:30;16.60;99.90
21092;DHT22;10704;42.678;23.288;2023-05-20T06:01:56;16.70;99.90
21092;DHT22;10704;42.678;23.288;2023-05-20T06:04:22;16.90;99.90
21092;DHT22;10704;42.678;23.288;2023-05-20T06:06:51;16.90;99.90
21092;DHT22;10704;42.678;23.288;2023-05-20T06:09:18;16.90;99.90
21092;DHT22;10704;42.678;23.288;2023-05-20T06:11:44;17.10;99.90
21092;DHT22;10704;42.678;23.288;2023-05-20T06:14:10;17.20;99.90
21092;DHT22;10704;42.678;23.288;2023-05-20T06:16:37;17.40;99.90
21092;DHT22;10704;42.678;23.288;2023-05-20T06:19:03;17.50;99.90
21092;DHT22;10704;42.678;23.288;2023-05-20T06:21:31;17.70;99.90
21092;DHT22;10704;42.678;23.288;2023-05-20T06:23:57;17.70;99.90
21092;DHT22;10704;42.678;23.288;2023-05-20T06:26:23;17.90;99.90
21092;DHT22;10704;42.678;23.288;2023-05-20T06:28:49;17.90;99.90
21092;DHT22;10704;42.678;23.288;2023-05-20T06:31:15;18.00;99.90
21092;DHT22;10704;42.678;23.288;2023-05-20T06:33:41;18.10;99.90
21092;DHT22;10704;42.678;23.288;2023-05-20T06:36:11;18.30;99.90
21092;DHT22;10704;42.678;23.288;2023-05-20T06:38:37;18.50;99.90
21092;DHT22;10704;42.678;23.288;2023-05-20T06:41:03;18.70;99.90
21092;DHT22;10704;42.678;23.288;2023-05-20T06:43:31;18.80;99.90
21092;DHT22;10704;42.678;23.288;2023-05-20T06:46:23;18.80;99.90
21092;DHT22;10704;42.678;23.288;2023-05-20T06:52:43;19.20;99.90
21092;DHT22;10704;42.678;23.288;2023-05-20T06:58:57;19.50;99.90
21092;DHT22;10704;42.678;23.288;2023-05-20T07:01:23;19.70;99.90
21092;DHT22;10704;42.678;23.288;2023-05-20T07:10:26;20.20;99.90
21092;DHT22;10704;42.678;23.288;2023-05-20T07:16:39;20.70;99.90
21092;DHT22;10704;42.678;23.288;2023-05-20T07:19:06;20.70;98.20
21092;DHT22;10704;42.678;23.288;2023-05-20T07:21:32;20.90;97.90
21092;DHT22;10704;42.678;23.288;2023-05-20T07:24:10;21.00;95.60
21092;DHT22;10704;42.678;23.288;2023-05-20T07:30:24;21.20;93.70
21092;DHT22;10704;42.678;23.288;2023-05-20T07:40:43;21.90;89.00
21092;DHT22;10704;42.678;23.288;2023-05-20T07:43:10;22.00;88.50
21092;DHT22;10704;42.678;23.288;2023-05-20T07:45:36;22.10;86.50
21092;DHT22;10704;42.678;23.288;2023-05-20T07:48:03;22.30;83.20
21092;DHT22;10704;42.678;23.288;2023-05-20T07:50:29;22.30;80.50
21092;DHT22;10704;42.678;23.288;2023-05-20T07:52:55;21.80;81.60
21092;DHT22;10704;42.678;23.288;2023-05-20T07:55:23;21.00;84.90
21092;DHT22;10704;42.678;23.288;2023-05-20T07:57:48;20.90;85.80
21092;DHT22;10704;42.678;23.288;2023-05-20T08:03:39;21.90;83.70
21092;DHT22;10704;42.678;23.288;2023-05-20T08:09:57;23.10;78.80
21092;DHT22;10704;42.678;23.288;2023-05-20T08:12:25;22.80;78.20
21092;DHT22;10704;42.678;23.288;2023-05-20T08:14:53;23.10;78.90
21092;DHT22;10704;42.678;23.288;2023-05-20T08:17:19;23.30;76.80
21092;DHT22;10704;42.678;23.288;2023-05-20T08:23:12;23.30;75.80
21092;DHT22;10704;42.678;23.288;2023-05-20T08:29:25;23.90;74.70
21092;DHT22;10704;42.678;23.288;2023-05-20T08:31:51;24.10;72.90
21092;DHT22;10704;42.678;23.288;2023-05-20T08:34:18;24.70;73.30
21092;DHT22;10704;42.678;23.288;2023-05-20T08:36:44;24.60;73.00
21092;DHT22;10704;42.678;23.288;2023-05-20T08:39:10;24.50;71.70
21092;DHT22;10704;42.678;23.288;2023-05-20T08:41:38;24.40;72.80
21092;DHT22;10704;42.678;23.288;2023-05-20T08:44:04;24.70;72.10
21092;DHT22;10704;42.678;23.288;2023-05-20T08:46:31;24.80;72.30
21092;DHT22;10704;42.678;23.288;2023-05-20T08:48:59;24.70;70.60
21092;DHT22;10704;42.678;23.288;2023-05-20T08:51:26;24.70;72.20
21092;DHT22;10704;42.678;23.288;2023-05-20T08:53:53;24.80;71.70
21092;DHT22;10704;42.678;23.288;2023-05-20T08:56:19;25.10;69.90
21092;DHT22;10704;42.678;23.288;2023-05-20T08:58:46;25.40;68.40
21092;DHT22;10704;42.678;23.288;2023-05-20T09:01:12;25.80;67.90
21092;DHT22;10704;42.678;23.288;2023-05-20T09:07:29;25.80;66.90
21092;DHT22;10704;42.678;23.288;2023-05-20T09:09:55;26.30;66.40
21092;DHT22;10704;42.678;23.288;2023-05-20T09:12:21;26.80;65.30
21092;DHT22;10704;42.678;23.288;2023-05-20T09:14:47;26.60;64.30
21092;DHT22;10704;42.678;23.288;2023-05-20T09:17:12;26.50;65.10
21092;DHT22;10704;42.678;23.288;2023-05-20T09:19:39;26.70;64.40
21092;DHT22;10704;42.678;23.288;2023-05-20T09:22:05;26.60;64.40
21092;DHT22;10704;42.678;23.288;2023-05-20T09:24:31;26.50;63.40
21092;DHT22;10704;42.678;23.288;2023-05-20T09:26:57;26.80;62.80
21092;DHT22;10704;42.678;23.288;2023-05-20T09:33:11;27.20;61.30
21092;DHT22;10704;42.678;23.288;2023-05-20T09:43:11;26.90;62.60
21092;DHT22;10704;42.678;23.288;2023-05-20T09:49:27;26.60;62.70
21092;DHT22;10704;42.678;23.288;2023-05-20T09:55:41;28.50;59.00
21092;DHT22;10704;42.678;23.288;2023-05-20T09:58:43;28.10;59.40
21092;DHT22;10704;42.678;23.288;2023-05-20T10:01:10;28.40;58.70
21092;DHT22;10704;42.678;23.288;2023-05-20T10:15:16;28.00;56.90
21092;DHT22;10704;42.678;23.288;2023-05-20T10:18:06;27.70;57.80
21092;DHT22;10704;42.678;23.288;2023-05-20T10:20:48;28.30;56.60
21092;DHT22;10704;42.678;23.288;2023-05-20T10:23:29;27.80;57.20
21092;DHT22;10704;42.678;23.288;2023-05-20T10:25:56;28.20;57.30
21092;DHT22;10704;42.678;23.288;2023-05-20T10:28:28;28.90;56.40
21092;DHT22;10704;42.678;23.288;2023-05-20T10:30:56;29.20;54.30
21092;DHT22;10704;42.678;23.288;2023-05-20T10:33:22;29.60;53.50
21092;DHT22;10704;42.678;23.288;2023-05-20T10:35:51;28.70;53.70
21092;DHT22;10704;42.678;23.288;2023-05-20T10:38:17;28.80;54.10
21092;DHT22;10704;42.678;23.288;2023-05-20T10:40:43;29.00;53.60
21092;DHT22;10704;42.678;23.288;2023-05-20T10:43:13;29.10;52.80
21092;DHT22;10704;42.678;23.288;2023-05-20T10:45:54;29.30;53.40
21092;DHT22;10704;42.678;23.288;2023-05-20T10:50:49;28.00;52.80
21092;DHT22;10704;42.678;23.288;2023-05-20T10:53:15;27.10;54.20
21092;DHT22;10704;42.678;23.288;2023-05-20T10:55:47;26.50;55.20
21092;DHT22;10704;42.678;23.288;2023-05-20T10:58:16;26.80;55.30
21092;DHT22;10704;42.678;23.288;2023-05-20T11:04:31;26.40;54.90
21092;DHT22;10704;42.678;23.288;2023-05-20T11:06:57;25.70;56.20
21092;DHT22;10704;42.678;23.288;2023-05-20T11:09:23;25.60;56.80
21092;DHT22;10704;42.678;23.288;2023-05-20T11:11:52;26.20;55.80
21092;DHT22;10704;42.678;23.288;2023-05-20T11:14:18;25.70;56.10
21092;DHT22;10704;42.678;23.288;2023-05-20T11:20:49;24.90;57.90
21092;DHT22;10704;42.678;23.288;2023-05-20T11:27:03;23.70;61.40
21092;DHT22;10704;42.678;23.288;2023-05-20T11:29:29;24.20;62.60
21092;DHT22;10704;42.678;23.288;2023-05-20T11:35:51;26.00;58.60
21092;DHT22;10704;42.678;23.288;2023-05-20T11:38:18;26.50;56.20
21092;DHT22;10704;42.678;23.288;2023-05-20T11:40:46;26.30;56.30
21092;DHT22;10704;42.678;23.288;2023-05-20T11:43:13;26.90;56.10
21092;DHT22;10704;42.678;23.288;2023-05-20T11:46:03;26.60;55.20
21092;DHT22;10704;42.678;23.288;2023-05-20T11:48:29;25.50;56.30
21092;DHT22;10704;42.678;23.288;2023-05-20T11:50:56;25.00;58.10
21092;DHT22;10704;42.678;23.288;2023-05-20T11:53:23;25.10;59.20
21092;DHT22;10704;42.678;23.288;2023-05-20T11:59:36;26.10;58.10
21092;DHT22;10704;42.678;23.288;2023-05-20T12:02:02;25.80;57.70
21092;DHT22;10704;42.678;23.288;2023-05-20T12:04:28;25.90;57.60
21092;DHT22;10704;42.678;23.288;2023-05-20T12:06:54;26.10;57.20
21092;DHT22;10704;42.678;23.288;2023-05-20T12:09:20;26.10;58.50
21092;DHT22;10704;42.678;23.288;2023-05-20T12:11:47;26.50;57.80
21092;DHT22;10704;42.678;23.288;2023-05-20T12:14:13;26.70;57.40
21092;DHT22;10704;42.678;23.288;2023-05-20T12:16:39;26.60;58.30
21092;DHT22;10704;42.678;23.288;2023-05-20T12:19:04;26.60;58.00
21092;DHT22;10704;42.678;23.288;2023-05-20T12:29:32;24.80;61.40
21092;DHT22;10704;42.678;23.288;2023-05-20T12:31:58;23.80;61.80
21092;DHT22;10704;42.678;23.288;2023-05-20T12:34:25;23.40;63.80
21092;DHT22;10704;42.678;23.288;2023-05-20T12:36:51;23.20;64.90
21092;DHT22;10704;42.678;23.288;2023-05-20T12:46:53;21.20;70.40
21092;DHT22;10704;42.678;23.288;2023-05-20T12:53:06;19.70;76.50
21092;DHT22;10704;42.678;23.288;2023-05-20T12:55:46;19.40;78.00
21092;DHT22;10704;42.678;23.288;2023-05-20T12:58:11;19.50;79.20
21092;DHT22;10704;42.678;23.288;2023-05-20T13:19:35;22.70;68.90
21092;DHT22;10704;42.678;23.288;2023-05-20T13:22:03;23.60;67.90
21092;DHT22;10704;42.678;23.288;2023-05-20T13:24:29;23.60;66.60
21092;DHT22;10704;42.678;23.288;2023-05-20T13:30:42;24.10;67.00
21092;DHT22;10704;42.678;23.288;2023-05-20T13:40:11;24.20;64.90
21092;DHT22;10704;42.678;23.288;2023-05-20T13:42:37;24.20;63.80
21092;DHT22;10704;42.678;23.288;2023-05-20T13:45:04;24.30;65.50
21092;DHT22;10704;42.678;23.288;2023-05-20T13:47:48;24.50;64.90
21092;DHT22;10704;42.678;23.288;2023-05-20T13:50:13;24.20;65.70
21092;DHT22;10704;42.678;23.288;2023-05-20T13:56:37;24.70;64.70
21092;DHT22;10704;42.678;23.288;2023-05-20T13:59:03;25.00;63.10
21092;DHT22;10704;42.678;23.288;2023-05-20T14:05:16;24.40;66.30
21092;DHT22;10704;42.678;23.288;2023-05-20T14:07:43;24.40;66.20
21092;DHT22;10704;42.678;23.288;2023-05-20T14:14:18;23.90;68.90
21092;DHT22;10704;42.678;23.288;2023-05-20T14:20:07;23.90;69.20
21092;DHT22;10704;42.678;23.288;2023-05-20T14:22:34;23.80;69.70
21092;DHT22;10704;42.678;23.288;2023-05-20T14:25:00;23.50;70.30
21092;DHT22;10704;42.678;23.288;2023-05-20T14:27:25;23.00;71.80
21092;DHT22;10704;42.678;23.288;2023-05-20T14:29:51;24.20;69.70
21092;DHT22;10704;42.678;23.288;2023-05-20T14:32:17;24.10;68.70
21092;DHT22;10704;42.678;23.288;2023-05-20T14:34:43;23.90;70.30
21092;DHT22;10704;42.678;23.288;2023-05-20T14:37:09;23.70;69.60
21092;DHT22;10704;42.678;23.288;2023-05-20T14:43:02;23.70;69.50
21092;DHT22;10704;42.678;23.288;2023-05-20T14:45:27;23.80;69.00
21092;DHT22;10704;42.678;23.288;2023-05-20T14:51:16;24.30;66.80
21092;DHT22;10704;42.678;23.288;2023-05-20T14:53:42;23.90;68.10
21092;DHT22;10704;42.678;23.288;2023-05-20T14:56:08;23.80;68.70
21092;DHT22;10704;42.678;23.288;2023-05-20T14:58:34;23.70;67.90
21092;DHT22;10704;42.678;23.288;2023-05-20T15:01:00;23.20;69.00
21092;DHT22;10704;42.678;23.288;2023-05-20T15:03:26;22.70;69.60
21092;DHT22;10704;42.678;23.288;2023-05-20T15:05:52;21.90;72.10
21092;DHT22;10704;42.678;23.288;2023-05-20T15:08:19;22.10;72.60
21092;DHT22;10704;42.678;23.288;2023-05-20T15:14:32;23.30;70.40
21092;DHT22;10704;42.678;23.288;2023-05-20T15:17:08;23.50;70.40
21092;DHT22;10704;42.678;23.288;2023-05-20T15:19:35;23.20;72.00
21092;DHT22;10704;42.678;23.288;2023-05-20T15:22:01;22.70;74.00
21092;DHT22;10704;42.678;23.288;2023-05-20T15:24:27;22.20;75.10
21092;DHT22;10704;42.678;23.288;2023-05-20T15:26:53;21.90;76.30
21092;DHT22;10704;42.678;23.288;2023-05-20T15:29:20;21.60;78.30
21092;DHT22;10704;42.678;23.288;2023-05-20T15:31:46;21.10;81.00
21092;DHT22;10704;42.678;23.288;2023-05-20T15:34:13;21.10;82.60
21092;DHT22;10704;42.678;23.288;2023-05-20T15:36:39;20.90;84.50
21092;DHT22;10704;42.678;23.288;2023-05-20T15:39:05;20.90;86.60
21092;DHT22;10704;42.678;23.288;2023-05-20T15:41:31;21.00;85.00
21092;DHT22;10704;42.678;23.288;2023-05-20T15:43:57;21.60;83.30
21092;DHT22;10704;42.678;23.288;2023-05-20T15:46:24;21.80;81.60
21092;DHT22;10704;42.678;23.288;2023-05-20T15:48:50;22.10;80.90
21092;DHT22;10704;42.678;23.288;2023-05-20T15:51:17;22.60;80.50
21092;DHT22;10704;42.678;23.288;2023-05-20T15:53:47;23.10;78.40
21092;DHT22;10704;42.678;23.288;2023-05-20T15:56:13;23.20;76.30
21092;DHT22;10704;42.678;23.288;2023-05-20T15:58:39;23.00;77.50
21092;DHT22;10704;42.678;23.288;2023-05-20T16:01:05;22.60;79.60
21092;DHT22;10704;42.678;23.288;2023-05-20T16:03:31;22.20;80.90
21092;DHT22;10704;42.678;23.288;2023-05-20T16:06:17;21.60;81.70
21092;DHT22;10704;42.678;23.288;2023-05-20T16:12:50;20.80;88.20
21092;DHT22;10704;42.678;23.288;2023-05-20T16:15:16;20.40;90.00
21092;DHT22;10704;42.678;23.288;2023-05-20T16:17:46;20.20;91.40
21092;DHT22;10704;42.678;23.288;2023-05-20T16:20:15;20.00;92.10
21092;DHT22;10704;42.678;23.288;2023-05-20T16:22:41;20.10;93.30
21092;DHT22;10704;42.678;23.288;2023-05-20T16:28:57;20.80;92.00
21092;DHT22;10704;42.678;23.288;2023-05-20T16:31:24;21.10;90.70
21092;DHT22;10704;42.678;23.288;2023-05-20T16:41:26;21.50;90.80
21092;DHT22;10704;42.678;23.288;2023-05-20T16:43:52;21.60;90.10
21092;DHT22;10704;42.678;23.288;2023-05-20T16:46:19;21.30;90.20
21092;DHT22;10704;42.678;23.288;2023-05-20T16:48:46;20.90;91.60
21092;DHT22;10704;42.678;23.288;2023-05-20T16:51:15;20.80;92.20
21092;DHT22;10704;42.678;23.288;2023-05-20T16:53:47;20.50;93.10
21092;DHT22;10704;42.678;23.288;2023-05-20T16:56:14;20.30;95.00
21092;DHT22;10704;42.678;23.288;2023-05-20T17:02:31;20.00;97.10
21092;DHT22;10704;42.678;23.288;2023-05-20T17:04:57;19.90;97.90
21092;DHT22;10704;42.678;23.288;2023-05-20T17:07:29;19.70;99.00
21092;DHT22;10704;42.678;23.288;2023-05-20T17:09:55;19.70;99.90
21092;DHT22;10704;42.678;23.288;2023-05-20T17:12:21;19.60;99.90
21092;DHT22;10704;42.678;23.288;2023-05-20T17:14:47;19.40;99.90
21092;DHT22;10704;42.678;23.288;2023-05-20T17:17:12;19.10;99.90
21092;DHT22;10704;42.678;23.288;2023-05-20T17:19:39;18.80;99.90
21092;DHT22;10704;42.678;23.288;2023-05-20T17:22:06;18.70;99.90
21092;DHT22;10704;42.678;23.288;2023-05-20T17:24:32;18.60;99.90
21092;DHT22;10704;42.678;23.288;2023-05-20T17:26:58;18.50;99.90
21092;DHT22;10704;42.678;23.288;2023-05-20T17:29:24;18.40;99.90
21092;DHT22;10704;42.678;23.288;2023-05-20T17:31:50;18.30;99.90
21092;DHT22;10704;42.678;23.288;2023-05-20T17:34:16;18.20;99.90
21092;DHT22;10704;42.678;23.288;2023-05-20T17:36:42;18.10;99.90
21092;DHT22;10704;42.678;23.288;2023-05-20T17:39:08;18.00;99.90
21092;DHT22;10704;42.678;23.288;2023-05-20T17:41:34;18.10;99.90
21092;DHT22;10704;42.678;23.288;2023-05-20T17:44:00;18.10;99.90
21092;DHT22;10704;42.678;23.288;2023-05-20T17:46:27;18.00;99.90
21092;DHT22;10704;42.678;23.288;2023-05-20T17:48:52;17.80;99.90
21092;DHT22;10704;42.678;23.288;2023-05-20T17:51:18;17.80;99.90
21092;DHT22;10704;42.678;23.288;2023-05-20T17:57:32;17.70;99.90
21092;DHT22;10704;42.678;23.288;2023-05-20T17:59:58;17.80;99.90
21092;DHT22;10704;42.678;23.288;2023-05-20T18:02:23;17.80;99.90
21092;DHT22;10704;42.678;23.288;2023-05-20T18:04:50;17.90;99.90
21092;DHT22;10704;42.678;23.288;2023-05-20T18:07:16;17.80;99.90
21092;DHT22;10704;42.678;23.288;2023-05-20T18:09:42;17.70;99.90
21092;DHT22;10704;42.678;23.288;2023-05-20T18:12:08;17.70;99.90
21092;DHT22;10704;42.678;23.288;2023-05-20T18:14:34;17.60;99.90
21092;DHT22;10704;42.678;23.288;2023-05-20T18:17:00;17.60;99.90
21092;DHT22;10704;42.678;23.288;2023-05-20T18:19:26;17.70;99.90
21092;DHT22;10704;42.678;23.288;2023-05-20T18:21:53;17.60;99.90
21092;DHT22;10704;42.678;23.288;2023-05-20T18:24:18;17.70;99.90
21092;DHT22;10704;42.678;23.288;2023-05-20T18:26:46;17.60;99.90
21092;DHT22;10704;42.678;23.288;2023-05-20T18:29:12;17.50;99.90
21092;DHT22;10704;42.678;23.288;2023-05-20T18:31:38;17.50;99.90
21092;DHT22;10704;42.678;23.288;2023-05-20T18:34:04;17.40;99.90
21092;DHT22;10704;42.678;23.288;2023-05-20T18:36:30;17.50;99.90
21092;DHT22;10704;42.678;23.288;2023-05-20T18:38:56;17.40;99.90
21092;DHT22;10704;42.678;23.288;2023-05-20T18:45:10;17.40;99.90
21092;DHT22;10704;42.678;23.288;2023-05-20T18:47:36;17.40;99.90
21092;DHT22;10704;42.678;23.288;2023-05-20T18:54:01;17.30;99.90